Date,TemperatureHighF,TemperatureAvgF,TemperatureLowF,DewpointHighF,DewpointAvgF,DewpointLowF,HumidityHigh,HumidityAvg,HumidityLow,PressureMaxIn,PressureMinIn,WindSpeedMaxMPH,WindSpeedAvgMPH,GustSpeedMaxMPH,PrecipitationSumIn
2013-1-1,56,51,50,50,47,45,91,85,66,29.94,29.88,64,14,64,0.10
2013-1-2,45,43,41,33,31,30,75,62,56,30.12,30.04,60,6,60,0.00
2013-1-3,47,43,39,33,31,29,72,63,53,30.25,30.11,62,7,62,0.00
2013-1-4,44,42,38,38,35,32,87,79,63,30.31,30.18,62,6,62,0.04
2013-1-5,54,44,42,42,38,37,86,78,61,30.20,30.03,7,2,7,0.00
2013-1-6,50,42,30,42,32,26,91,67,49,30.19,30.11,12,2,12,0.00
2013-1-7,59,43,30,45,34,25,82,70,48,30.13,29.86,11,4,11,0.00
2013-1-8,50,50,48,47,47,46,91,90,89,29.84,29.77,7,3,7,0.02
2013-1-9,66,60,58,62,58,56,94,92,88,29.82,29.66,25,7,25,1.82
2013-1-10,60,48,43,47,44,41,93,85,60,29.87,29.85,12,2,12,0.00
2013-1-11,72,68,67,62,61,60,80,77,72,29.64,29.63,7,2,7,0.00
2013-1-12,78,71,58,68,62,43,87,74,57,29.60,29.47,20,5,20,0.00
2013-1-13,56,51,45,37,33,32,61,51,41,29.94,29.68,68,12,68,0.00
2013-1-14,43,40,37,34,30,25,69,66,62,30.00,29.92,15,9,15,0.00
2013-1-15,43,39,36,36,33,26,89,78,66,30.07,29.90,20,8,26,0.00
2013-1-16,55,40,24,32,22,18,83,53,25,30.18,30.00,20,4,20,0.00
2013-1-17,66,49,32,39,32,24,74,53,32,30.28,30.11,15,4,17,0.00
2013-1-18,65,50,36,40,34,29,76,56,36,30.33,30.12,12,3,12,0.00
2013-1-19,71,53,37,51,41,33,91,68,42,30.13,29.96,15,2,15,0.00
2013-1-20,72,54,36,56,45,33,91,73,48,30.07,29.90,10,1,10,0.00
2013-1-21,76,57,43,59,48,40,91,72,48,30.05,29.94,8,0,8,0.00
2013-1-22,74,59,48,54,47,42,81,65,46,30.12,29.99,14,3,14,0.00
2013-1-23,78,60,47,60,52,44,92,76,52,30.16,30.01,15,1,15,0.00
2013-1-24,80,66,57,64,58,54,93,79,54,30.08,29.92,12,2,12,0.00
2013-1-25,80,68,59,64,60,55,91,78,54,30.09,29.83,13,2,13,0.00
2013-1-26,76,64,56,62,57,52,94,79,57,30.14,30.00,12,3,13,0.00
2013-1-27,79,69,59,67,63,57,96,83,62,30.07,29.92,16,4,17,0.00
2013-1-28,76,72,69,68,66,66,92,83,72,30.02,29.84,17,6,17,0.00
2013-1-29,86,72,58,68,57,28,88,62,30,29.84,29.47,28,5,28,0.00
2013-1-30,61,53,35,28,20,11,67,30,15,30.25,29.80,23,5,25,0.00
2013-1-31,69,48,29,37,25,17,87,48,15,30.33,30.19,9,1,10,0.00
2013-2-1,73,58,43,48,39,33,84,53,26,30.34,30.17,16,2,17,0.00
2013-2-2,77,59,43,57,48,40,93,70,41,30.26,30.14,10,1,10,0.00
2013-2-3,72,62,53,55,45,37,85,57,35,30.31,30.01,13,3,13,0.00
2013-2-4,79,64,54,61,56,51,93,78,47,30.01,29.77,10,1,10,0.00
2013-2-5,82,66,51,59,48,38,97,61,21,29.97,29.85,6,0,6,0.04
2013-2-6,74,64,59,63,59,55,93,83,61,29.97,29.81,11,3,15,0.10
2013-2-7,78,66,59,63,58,44,95,79,49,30.04,29.85,11,1,11,0.00
2013-2-8,71,60,47,49,40,33,79,51,26,30.21,30.03,15,3,17,0.00
2013-2-9,70,60,51,67,57,40,96,89,62,30.07,29.76,19,4,19,0.01
2013-2-10,70,66,60,67,47,31,95,56,27,30.00,29.72,16,3,16,0.01
2013-2-11,60,56,52,51,46,38,94,69,48,30.04,29.91,14,4,14,0.00
2013-2-12,76,61,52,59,45,23,97,65,20,30.03,29.80,19,3,19,0.00
2013-2-13,67,52,38,39,33,29,79,52,27,30.16,30.00,17,2,17,0.00
2013-2-14,69,52,35,43,37,32,89,61,34,30.15,30.00,11,1,13,0.00
2013-2-15,70,53,39,49,39,29,93,62,31,30.38,30.07,18,3,19,0.00
2013-2-16,66,50,34,31,27,23,69,43,22,30.48,30.23,10,1,10,0.00
2013-2-17,71,55,32,54,40,28,88,59,34,30.23,29.98,19,4,20,0.00
2013-2-18,81,68,60,62,52,30,85,60,28,30.04,29.83,12,3,17,0.00
2013-2-19,69,58,45,39,32,27,65,39,22,30.23,30.03,16,4,17,0.00
2013-2-20,70,62,53,65,54,29,89,77,33,30.09,29.63,19,6,20,0.01
2013-2-21,79,70,52,67,46,24,89,51,14,29.84,29.56,14,4,20,0.00
2013-2-22,64,56,50,41,34,25,64,45,31,30.00,29.83,19,4,19,0.00
2013-2-23,72,56,43,42,36,29,65,47,30,30.05,29.85,14,2,14,0.00
2013-2-24,69,57,40,60,50,36,93,77,63,29.90,29.58,15,3,17,0.00
2013-2-25,67,59,49,60,35,13,97,48,14,29.88,29.55,30,8,30,0.01
2013-2-26,66,52,40,30,28,23,61,41,20,29.97,29.85,15,2,15,0.00
2013-2-27,68,54,39,38,30,23,82,45,21,30.22,29.87,19,3,20,0.00
2013-2-28,65,49,39,30,26,21,66,43,20,30.33,30.19,16,2,16,0.00
2013-3-1,74,52,30,31,24,14,81,41,13,30.30,30.09,12,1,14,0.00
2013-3-2,68,52,40,30,27,25,63,41,21,30.43,30.25,17,2,17,0.00
2013-3-3,77,56,32,44,33,25,79,48,19,30.27,29.95,16,3,16,0.00
2013-3-4,88,67,46,55,48,39,96,57,19,29.95,29.69,11,2,13,0.00
2013-3-5,70,58,45,56,30,14,95,41,13,30.35,29.76,24,5,26,0.00
2013-3-6,66,50,35,28,20,14,51,33,15,30.45,30.22,13,2,13,0.00
2013-3-7,74,57,37,56,46,28,87,68,43,30.23,30.07,18,4,18,0.00
2013-3-8,70,65,61,65,60,54,93,84,76,30.12,29.95,20,5,20,0.02
2013-3-9,78,69,64,67,64,60,95,85,67,29.99,29.58,24,7,25,0.01
2013-3-10,71,63,51,64,43,31,94,51,23,30.12,29.58,23,7,23,0.07
2013-3-11,73,55,40,34,29,22,71,42,17,30.19,29.99,22,4,22,0.00
2013-3-12,80,58,36,43,32,26,80,43,15,30.20,30.05,14,2,14,0.00
2013-3-13,78,61,44,49,40,35,88,50,23,30.42,30.20,13,3,13,0.00
2013-3-14,80,62,42,56,46,37,93,61,28,30.38,30.20,16,3,16,0.00
2013-3-15,82,66,46,57,49,39,97,62,23,30.24,29.97,19,4,19,0.00
2013-3-16,86,69,54,62,56,50,97,69,30,30.00,29.71,20,5,21,0.00
2013-3-17,87,73,65,65,61,56,87,69,37,29.80,29.60,15,4,15,0.00
2013-3-18,97,75,59,66,53,18,97,59,6,29.89,29.68,21,4,21,0.00
2013-3-19,81,69,54,65,56,45,81,63,50,29.96,29.78,16,5,18,0.00
2013-3-20,75,65,57,64,50,38,87,61,29,30.20,29.90,26,6,26,0.01
2013-3-21,77,64,50,61,53,42,86,67,53,30.01,29.61,19,4,19,0.00
2013-3-22,90,73,65,68,64,57,96,76,37,29.70,29.58,16,2,16,0.00
2013-3-23,85,68,56,64,56,50,84,68,45,29.75,29.55,15,4,16,0.00
2013-3-24,68,57,44,59,32,19,87,44,18,30.15,29.66,29,8,29,0.00
2013-3-25,63,49,37,26,19,7,62,34,12,30.38,30.15,25,4,25,0.00
2013-3-26,70,52,36,30,21,15,56,32,13,30.50,30.28,12,3,12,0.00
2013-3-27,69,56,36,51,39,28,76,55,41,30.33,30.15,17,4,17,0.00
2013-3-28,71,65,60,59,56,50,83,73,62,30.19,30.10,17,4,17,0.00
2013-3-29,79,69,56,61,58,54,96,70,44,30.16,30.01,16,4,20,0.00
2013-3-30,85,73,64,65,62,59,89,70,44,30.07,29.86,9,4,16,0.00
2013-3-31,83,70,64,65,63,60,93,79,51,29.92,29.80,7,2,26,0.03
2013-4-1,87,73,63,66,62,59,95,73,40,30.01,29.84,8,2,17,0.00
2013-4-2,83,71,64,66,64,59,92,79,55,29.97,29.75,15,4,32,0.39
2013-4-3,60,56,51,57,52,47,94,90,85,30.12,29.71,15,6,21,0.56
2013-4-4,71,57,48,48,46,43,89,69,41,30.21,30.07,10,5,18,0.00
2013-4-5,74,57,41,52,46,39,95,69,40,30.27,30.05,7,1,9,0.00
2013-4-6,82,67,52,59,55,48,93,70,43,30.07,29.83,10,4,16,0.00
2013-4-7,86,71,61,65,62,58,90,74,47,29.89,29.72,10,5,19,0.00
2013-4-8,77,71,68,67,65,62,89,81,71,29.80,29.63,10,5,19,0.00
2013-4-9,89,77,71,71,68,66,86,75,50,29.68,29.52,10,6,19,0.00
2013-4-10,75,63,50,69,56,45,94,78,62,29.89,29.58,16,8,24,0.06
2013-4-11,68,56,47,46,43,38,83,62,41,29.98,29.78,12,3,17,0.03
2013-4-12,82,64,44,52,44,38,93,56,21,29.99,29.81,8,2,13,0.00
2013-4-13,80,66,52,60,53,44,95,67,39,29.94,29.73,8,3,14,0.00
2013-4-14,89,71,56,68,62,54,96,76,39,29.80,29.58,6,2,13,0.00
2013-4-15,92,78,68,68,66,60,91,69,36,29.76,29.64,10,4,16,0.00
2013-4-16,86,76,65,71,67,62,94,74,53,29.84,29.73,10,5,19,0.00
2013-4-17,80,76,73,72,71,70,95,85,72,29.83,29.61,10,5,18,0.00
2013-4-18,76,66,55,71,56,41,91,71,42,30.04,29.60,20,8,26,0.19
2013-4-19,73,59,45,39,32,26,72,41,17,30.28,30.07,14,5,23,0.00
2013-4-20,75,59,38,48,36,30,85,48,19,30.22,29.97,10,3,17,0.00
2013-4-21,82,67,52,59,53,47,85,64,38,30.11,29.95,10,3,15,0.00
2013-4-22,86,71,57,63,60,55,95,69,40,30.09,29.83,8,4,15,0.00
2013-4-23,80,71,58,68,62,47,88,74,55,30.02,29.81,16,5,21,0.00
2013-4-24,65,56,48,46,40,37,76,54,37,30.23,30.03,19,9,25,0.00
2013-4-25,71,63,58,51,45,40,64,52,39,30.30,30.16,8,3,16,0.00
2013-4-26,80,70,60,70,64,52,96,81,67,30.17,29.99,12,3,16,0.01
2013-4-27,82,73,66,72,68,64,95,85,66,30.05,29.88,8,2,22,2.24
2013-4-28,82,70,60,67,64,59,97,80,56,29.99,29.83,7,2,13,0.00
2013-4-29,86,73,67,68,66,63,95,79,47,29.90,29.73,10,2,22,0.00
2013-4-30,84,73,65,69,66,64,96,79,56,29.80,29.67,9,2,11,0.00
2013-5-1,89,77,67,70,68,66,95,75,52,29.87,29.74,7,2,12,0.00
2013-5-2,76,60,51,70,52,39,88,74,61,30.33,29.81,32,10,36,0.38
2013-5-3,70,57,46,45,35,31,84,48,25,30.35,30.08,16,6,24,0.00
2013-5-4,80,61,42,48,41,37,93,57,22,30.09,29.87,6,1,12,0.00
2013-5-5,84,65,48,50,45,41,89,53,22,30.12,29.96,11,3,19,0.00
2013-5-6,77,64,50,56,51,46,89,65,43,30.13,29.97,7,1,10,0.00
2013-5-7,83,69,52,61,55,49,94,65,35,30.07,29.89,10,2,11,0.00
2013-5-8,84,73,62,66,63,59,91,74,50,29.98,29.84,11,4,15,0.00
2013-5-9,81,75,70,72,69,66,89,82,71,29.92,29.78,15,3,18,0.03
2013-5-10,81,71,62,70,64,60,96,81,58,29.99,29.80,12,4,23,0.73
2013-5-11,83,73,64,64,61,54,91,68,47,30.11,29.98,16,6,23,0.00
2013-5-12,83,70,56,58,53,50,84,58,35,30.21,30.08,9,3,19,0.00
2013-5-13,83,70,53,63,56,51,93,64,35,30.25,30.11,8,2,11,0.00
2013-5-14,84,73,58,68,63,56,95,72,53,30.20,29.97,10,3,15,0.00
2013-5-15,87,76,71,72,70,67,93,80,59,30.06,29.79,15,6,24,0.01
2013-5-16,95,80,72,75,71,68,88,75,44,29.83,29.65,11,4,18,0.00
2013-5-17,96,82,74,75,72,69,89,74,44,29.85,29.73,8,4,15,0.00
2013-5-18,94,81,72,73,69,65,93,69,43,29.88,29.76,13,4,23,0.00
2013-5-19,92,81,74,74,70,67,86,70,51,29.82,29.67,13,6,23,0.00
2013-5-20,93,81,71,72,71,69,93,72,50,29.80,29.64,13,5,18,0.00
2013-5-21,91,81,71,74,72,66,92,73,55,29.81,29.64,12,4,20,0.02
2013-5-22,90,77,64,72,67,61,91,71,54,29.88,29.75,9,2,12,0.01
2013-5-23,93,82,74,73,71,70,90,72,48,29.97,29.80,10,3,15,0.00
2013-5-24,79,74,69,73,70,66,95,89,71,30.06,29.95,7,2,12,0.43
2013-5-25,80,73,68,73,70,67,97,90,79,30.11,29.97,10,2,13,1.79
2013-5-26,85,77,71,75,72,69,94,83,65,30.05,29.93,11,3,18,0.00
2013-5-27,88,78,71,76,72,69,94,80,62,29.99,29.80,12,5,18,0.00
2013-5-28,87,80,74,74,72,70,88,77,61,29.88,29.72,14,6,22,0.00
2013-5-29,84,78,74,74,72,70,91,81,68,29.85,29.66,14,6,26,0.00
2013-5-30,88,81,75,76,73,72,89,78,63,29.79,29.71,10,5,15,0.00
2013-5-31,92,82,74,77,74,72,93,79,55,29.84,29.70,11,4,14,0.00
2013-6-1,94,84,77,77,74,73,88,74,52,29.85,29.74,11,4,16,0.00
2013-6-2,89,77,66,74,69,64,94,77,50,30.00,29.85,16,3,24,0.64
2013-6-3,90,78,66,72,68,63,96,74,47,29.95,29.79,4,1,9,0.00
2013-6-4,90,79,67,71,69,66,97,74,44,29.88,29.76,7,2,11,0.00
2013-6-5,92,80,68,73,69,66,96,73,45,29.85,29.69,9,2,14,0.00
2013-6-6,93,80,69,73,70,65,97,72,41,29.88,29.72,10,1,23,0.00
2013-6-7,78,72,66,70,67,64,95,82,66,29.97,29.84,9,3,17,0.18
2013-6-8,90,76,63,75,69,61,96,80,53,29.90,29.75,8,2,14,0.01
2013-6-9,88,79,74,78,73,69,94,82,62,29.91,29.80,7,2,11,0.09
2013-6-10,94,81,70,75,72,68,95,75,47,29.95,29.85,9,1,15,0.00
2013-6-11,92,78,72,74,72,70,97,84,54,29.99,29.92,6,1,17,0.30
2013-6-12,91,78,72,77,74,69,97,87,60,30.01,29.92,21,2,28,0.20
2013-6-13,88,77,72,78,74,69,97,91,69,30.02,29.91,16,1,20,0.71
2013-6-14,86,78,73,78,75,72,98,89,69,29.96,29.86,3,0,8,0.02
2013-6-15,91,82,74,77,75,71,97,80,54,29.96,29.84,6,1,10,0.01
2013-6-16,93,83,75,76,74,70,96,77,47,29.98,29.85,8,3,13,0.00
2013-6-17,94,84,77,76,74,69,91,73,44,29.96,29.80,7,3,12,0.00
2013-6-18,94,84,75,74,73,69,93,71,44,29.96,29.82,8,1,10,0.00
2013-6-19,96,84,75,74,72,65,92,69,37,29.95,29.84,9,2,14,0.00
2013-6-20,95,84,73,75,72,68,93,69,44,30.01,29.90,12,4,15,0.00
2013-6-21,95,84,76,75,71,62,93,68,37,30.04,29.92,10,4,16,0.00
2013-6-22,96,84,74,75,71,65,94,67,38,30.00,29.85,13,5,16,0.00
2013-6-23,94,84,75,74,70,62,93,66,36,29.94,29.83,11,4,16,0.00
2013-6-24,97,85,75,75,72,67,92,68,40,29.98,29.85,13,6,19,0.00
2013-6-25,98,86,76,74,71,65,89,64,34,29.96,29.82,18,6,21,0.00
2013-6-26,100,86,76,74,72,68,88,65,35,29.93,29.82,12,5,18,0.00
2013-6-27,101,87,76,74,68,56,88,59,24,29.98,29.85,9,3,12,0.00
2013-6-28,103,87,75,74,68,60,92,59,25,29.96,29.77,7,2,13,0.00
2013-6-29,110,91,72,72,65,56,89,48,18,29.84,29.67,11,2,18,0.00
2013-6-30,88,80,70,72,69,62,95,71,42,29.95,29.75,10,2,21,0.30
2013-7-1,93,80,72,70,61,55,92,54,31,29.96,29.83,12,4,17,0.00
2013-7-2,97,80,66,62,57,49,77,49,22,30.04,29.91,10,2,18,0.00
2013-7-3,98,83,68,64,51,42,70,37,16,29.99,29.84,9,3,16,0.00
2013-7-4,96,82,65,70,62,52,92,55,24,29.95,29.82,7,1,18,0.00
2013-7-5,97,84,70,72,65,58,89,58,28,29.94,29.78,10,2,12,0.00
2013-7-6,97,84,70,73,66,59,93,59,30,29.90,29.76,11,2,14,0.00
2013-7-7,98,82,74,75,72,68,92,75,37,29.93,29.82,7,1,19,0.44
2013-7-8,88,79,75,75,74,71,93,83,56,30.07,29.93,11,2,14,0.10
2013-7-9,97,84,72,76,72,68,97,72,38,30.11,29.96,11,3,13,0.00
2013-7-10,98,85,74,76,72,67,96,68,38,30.06,29.88,12,2,14,0.00
2013-7-11,98,86,73,75,70,63,94,62,32,29.97,29.83,8,2,12,0.00
2013-7-12,100,86,71,75,69,61,96,62,29,29.93,29.82,8,2,15,0.00
2013-7-13,101,86,70,74,66,58,93,56,25,29.94,29.79,7,2,12,0.00
2013-7-14,98,84,72,73,68,64,88,63,32,29.86,29.78,16,3,18,0.00
2013-7-15,88,77,72,74,72,69,95,86,60,29.96,29.82,7,2,20,0.59
2013-7-16,86,77,73,75,73,71,97,86,67,30.07,29.95,7,2,16,0.02
2013-7-17,87,76,72,73,72,70,96,86,61,30.12,30.05,11,3,20,0.01
2013-7-18,90,80,72,76,72,68,96,77,49,30.12,29.95,8,2,11,0.01
2013-7-19,96,82,72,76,72,68,97,73,44,30.03,29.85,8,1,10,0.00
2013-7-20,94,83,72,75,71,67,96,71,41,29.96,29.80,6,1,12,0.00
2013-7-21,93,84,75,78,74,72,95,75,51,29.92,29.82,8,2,13,0.02
2013-7-22,96,86,77,77,74,68,92,70,40,29.95,29.83,11,4,18,0.00
2013-7-23,98,86,77,75,72,64,87,65,34,29.97,29.82,13,5,16,0.00
2013-7-24,99,86,76,75,72,64,91,66,34,29.94,29.81,6,2,14,0.00
2013-7-25,100,86,72,75,71,65,95,66,35,29.99,29.89,9,2,14,0.00
2013-7-26,98,86,74,76,73,67,95,68,37,29.99,29.82,8,2,16,0.00
2013-7-27,95,85,75,77,73,70,94,70,49,29.95,29.81,11,3,19,0.00
2013-7-28,98,86,76,76,71,68,82,64,40,29.90,29.79,10,3,15,0.00
2013-7-29,100,87,78,75,72,65,86,63,32,29.99,29.88,12,5,19,0.00
2013-7-30,101,87,78,75,71,62,85,63,28,30.05,29.91,10,5,20,0.00
2013-7-31,104,87,75,73,68,57,92,59,23,30.06,29.87,9,2,11,0.00
2013-8-1,104,88,75,75,70,64,94,59,28,30.00,29.83,7,2,12,0.00
2013-8-2,101,87,72,75,69,64,94,59,30,29.95,29.82,9,3,16,0.00
2013-8-3,100,87,76,74,71,66,92,62,34,29.97,29.85,11,4,16,0.00
2013-8-4,100,87,76,76,72,67,92,64,37,30.01,29.86,10,4,15,0.00
2013-8-5,102,88,76,75,70,62,90,60,28,30.00,29.82,10,4,18,0.00
2013-8-6,103,89,76,74,70,62,89,59,26,29.91,29.75,9,4,17,0.00
2013-8-7,104,88,77,75,70,60,88,60,25,29.88,29.73,9,3,16,0.00
2013-8-8,104,88,78,74,70,55,83,59,20,29.86,29.72,9,4,20,0.00
2013-8-9,102,88,74,74,68,57,91,59,23,29.92,29.79,6,1,13,0.00
2013-8-10,104,86,72,74,71,68,86,62,31,30.00,29.87,9,2,18,0.00
2013-8-11,100,83,75,76,73,67,93,74,35,30.03,29.90,10,1,20,0.42
2013-8-12,97,84,73,75,72,67,96,70,38,30.03,29.89,10,2,12,0.01
2013-8-13,100,87,76,75,71,65,92,63,33,30.00,29.83,8,3,11,0.00
2013-8-14,103,88,76,74,69,59,90,59,26,29.96,29.80,11,2,15,0.00
2013-8-15,106,87,77,73,69,62,85,59,25,29.95,29.82,11,2,19,0.00
2013-8-16,98,84,73,76,70,62,92,66,39,29.97,29.84,14,2,18,0.02
2013-8-17,99,85,72,72,64,54,89,56,23,29.99,29.86,15,4,22,0.00
2013-8-18,98,84,69,70,62,59,75,51,29,30.00,29.90,6,1,17,0.00
2013-8-19,98,84,69,68,63,56,83,53,26,30.01,29.86,6,1,10,0.00
2013-8-20,94,82,70,73,69,63,92,67,36,29.98,29.90,10,2,18,0.00
2013-8-21,95,81,73,74,71,67,87,73,46,30.02,29.93,8,2,16,0.09
2013-8-22,97,84,71,75,71,66,95,68,38,30.04,29.85,7,2,11,0.00
2013-8-23,99,86,74,76,70,65,92,62,34,29.98,29.83,8,1,12,0.00
2013-8-24,100,87,73,73,69,64,88,58,32,29.99,29.85,10,3,14,0.00
2013-8-25,100,86,74,73,69,66,81,60,34,30.03,29.92,14,4,20,0.00
2013-8-26,92,80,74,74,73,70,93,80,48,30.05,29.98,14,2,20,0.13
2013-8-27,91,80,73,75,73,70,94,79,50,30.06,30.00,10,2,14,0.06
2013-8-28,96,84,73,76,71,66,97,69,38,30.10,29.97,7,1,12,0.00
2013-8-29,99,85,72,76,70,64,95,64,33,30.09,29.93,6,1,11,0.00
2013-8-30,100,87,73,73,69,65,88,59,33,30.02,29.86,8,2,11,0.00
2013-8-31,99,86,72,73,69,66,89,60,34,29.94,29.80,8,2,11,0.00
2013-9-1,99,86,71,75,69,64,94,61,32,29.91,29.79,8,2,10,0.00
2013-9-2,100,86,74,76,70,63,95,63,30,29.97,29.80,9,2,15,0.00
2013-9-3,100,86,70,72,68,60,89,58,28,30.00,29.85,6,2,10,0.00
2013-9-4,101,84,76,76,71,67,87,67,34,30.02,29.92,9,1,24,0.47
2013-9-5,97,81,72,75,72,66,92,75,37,30.03,29.90,8,1,19,0.10
2013-9-6,96,83,72,76,72,67,96,72,40,30.04,29.88,13,1,19,0.01
2013-9-7,94,83,74,75,72,70,94,72,45,29.98,29.84,8,2,21,0.00
2013-9-8,88,79,73,74,72,70,95,79,57,29.93,29.83,8,1,16,0.00
2013-9-9,90,78,71,74,71,70,95,81,50,29.93,29.85,13,3,30,0.07
2013-9-10,87,77,72,76,73,70,97,87,63,30.00,29.92,9,2,13,0.28
2013-9-11,94,81,73,77,71,64,97,76,38,30.03,29.93,10,3,16,0.04
2013-9-12,95,82,72,75,70,58,95,69,29,30.01,29.85,13,2,13,0.00
2013-9-13,96,83,70,71,65,57,95,60,28,29.93,29.76,14,3,18,0.00
2013-9-14,95,82,70,73,68,65,93,65,38,29.88,29.78,10,2,14,0.00
2013-9-15,93,82,74,75,71,69,92,72,45,29.94,29.86,9,3,17,0.00
2013-9-16,86,77,74,77,73,71,95,87,73,29.99,29.90,18,4,22,0.64
2013-9-17,90,80,74,77,73,71,94,81,58,30.00,29.88,7,3,24,0.00
2013-9-18,90,79,74,77,74,71,96,83,52,29.96,29.84,8,2,15,0.11
2013-9-19,93,80,75,78,75,73,96,84,53,29.89,29.75,7,1,16,0.15
2013-9-20,84,76,72,78,74,69,96,92,80,29.81,29.69,15,4,27,0.61
2013-9-21,88,76,66,69,65,56,91,70,40,29.87,29.76,22,9,27,0.00
2013-9-22,87,73,61,58,54,47,75,53,26,29.86,29.73,14,4,22,0.00
2013-9-23,89,72,56,61,55,50,91,62,27,29.80,29.71,7,1,8,0.00
2013-9-24,99,78,62,66,62,59,91,62,29,29.88,29.77,5,1,17,0.00
2013-9-25,94,81,67,67,62,56,90,58,32,29.85,29.73,7,1,12,0.00
2013-9-26,92,80,68,74,69,59,96,70,47,29.85,29.74,9,3,18,0.00
2013-9-27,89,81,74,78,74,71,95,81,61,29.85,29.75,12,4,20,0.18
2013-9-28,91,81,75,79,76,73,95,84,56,29.91,29.79,9,3,19,0.25
2013-9-29,79,74,69,74,70,67,97,88,74,29.99,29.88,12,4,22,0.74
2013-9-30,90,76,63,68,64,58,98,72,36,29.91,29.76,5,1,11,0.00
2013-10-1,91,80,72,76,73,66,97,82,54,29.86,29.76,5,2,12,0.00
2013-10-2,90,81,76,74,73,70,94,77,52,29.90,29.79,8,4,12,0.00
2013-10-3,90,81,74,75,72,70,95,76,53,29.88,29.77,11,4,16,0.00
2013-10-4,90,80,70,74,71,68,97,77,52,29.87,29.77,11,4,19,0.00
2013-10-5,91,78,65,73,68,51,97,72,47,29.99,29.82,19,4,27,0.00
2013-10-6,82,67,54,55,49,42,91,59,25,30.11,29.98,18,6,26,0.13
2013-10-7,88,66,48,53,48,40,95,61,19,30.14,30.01,9,2,14,0.00
2013-10-8,84,67,50,54,50,47,95,60,28,30.06,29.94,5,1,12,0.00
2013-10-9,85,70,54,64,58,52,96,71,43,30.03,29.90,9,2,14,0.00
2013-10-10,87,79,65,68,66,61,91,65,49,29.99,29.83,14,3,14,0.00
2013-10-11,90,80,72,76,72,68,89,78,57,29.88,29.76,16,4,16,0.00
2013-10-12,92,82,75,76,74,71,95,78,54,29.95,29.84,18,3,18,0.00
2013-10-13,78,73,66,75,72,64,97,94,89,30.11,29.95,16,3,31,3.46
2013-10-14,85,78,73,75,72,70,96,82,63,30.02,29.85,19,3,19,0.01
2013-10-15,86,76,68,73,71,63,96,85,58,29.93,29.80,20,2,20,0.00
2013-10-16,68,60,56,63,58,55,96,92,84,30.04,29.85,22,7,22,0.52
2013-10-17,74,63,54,60,55,51,94,76,48,30.10,29.94,16,3,16,0.00
2013-10-18,73,67,59,67,63,55,96,88,78,29.96,29.82,11,2,11,0.02
2013-10-19,72,61,51,65,50,41,95,71,35,30.15,29.93,30,6,30,0.00
2013-10-20,74,60,45,58,50,43,96,73,41,30.07,29.88,14,1,14,0.01
2013-10-21,82,69,60,70,64,57,95,83,61,30.00,29.84,18,1,18,0.00
2013-10-22,78,65,53,60,50,39,89,62,27,30.12,29.99,20,6,20,0.00
2013-10-23,80,62,46,54,48,42,95,66,27,30.16,30.06,11,1,11,0.00
2013-10-24,80,65,48,60,53,46,96,69,37,30.20,30.09,12,1,12,0.00
2013-10-25,81,67,54,65,60,52,95,78,51,30.27,30.14,15,2,15,0.00
2013-10-26,82,71,63,68,64,62,96,81,55,30.17,30.01,16,2,16,0.00
2013-10-27,82,71,64,70,66,63,97,87,64,30.06,29.93,18,1,18,0.00
2013-10-28,85,75,68,71,68,65,96,80,57,30.03,29.90,20,4,20,0.00
2013-10-29,86,77,71,73,70,68,92,80,58,30.03,29.89,19,5,19,0.00
2013-10-30,84,78,75,75,74,71,95,85,70,29.97,29.73,20,4,20,0.01
2013-10-31,84,74,58,75,63,43,97,73,26,29.84,29.73,24,4,24,1.20
2013-11-1,85,67,51,65,52,41,94,63,25,30.02,29.78,26,3,27,0.00
2013-11-2,76,64,51,48,43,36,81,49,25,30.26,30.02,24,6,24,0.00
2013-11-3,72,59,45,56,45,34,90,64,27,30.18,29.98,14,2,15,0.00
2013-11-4,71,65,60,65,60,56,94,83,72,30.02,29.90,7,1,11,0.00
2013-11-5,80,72,65,71,68,64,98,86,65,29.97,29.84,14,2,14,0.00
2013-11-6,82,68,56,72,61,46,96,80,63,30.27,29.91,28,6,28,0.24
2013-11-7,64,56,50,46,40,33,69,56,34,30.42,30.26,20,7,26,0.00
2013-11-8,66,58,51,53,45,37,79,63,37,30.35,30.14,15,2,15,0.00
2013-11-9,71,63,55,62,56,50,89,78,63,30.16,30.07,11,1,11,0.04
2013-11-10,68,65,62,62,59,56,87,80,69,30.25,30.12,12,2,12,0.00
2013-11-11,80,67,60,58,56,54,88,70,45,30.23,30.10,11,1,11,0.00
2013-11-12,68,58,47,57,49,30,86,71,51,30.58,30.19,34,9,34,0.00
2013-11-13,59,46,37,34,28,23,81,53,28,30.62,30.38,22,5,22,0.00
2013-11-14,63,49,34,49,37,28,86,66,33,30.38,30.03,14,1,14,0.00
2013-11-15,77,64,49,61,55,46,92,74,51,30.03,29.82,14,1,14,0.00
2013-11-16,81,72,64,72,67,60,96,84,66,29.88,29.71,22,4,22,0.00
2013-11-17,86,74,69,72,68,66,91,83,60,29.88,29.74,7,1,9,0.00
2013-11-18,77,70,63,69,65,61,95,84,66,30.04,29.88,19,4,19,0.01
2013-11-19,70,64,56,65,53,46,92,68,50,30.09,29.95,19,3,19,0.00
2013-11-20,73,67,60,69,61,54,92,81,70,29.97,29.83,9,1,9,0.00
2013-11-21,82,75,72,72,71,69,93,86,67,29.99,29.87,14,2,14,0.13
2013-11-22,75,49,38,72,46,35,94,90,76,30.35,29.98,34,10,34,0.40
2013-11-23,44,41,38,42,38,36,94,89,82,30.43,30.32,27,10,27,0.04
2013-11-24,44,41,37,42,37,34,93,86,74,30.45,30.29,26,8,26,0.41
2013-11-25,43,40,37,40,37,35,94,91,85,30.32,30.06,20,6,20,0.27
2013-11-26,51,44,40,40,36,32,87,73,54,30.36,30.08,31,7,31,0.00
2013-11-27,54,42,33,32,-4,-43,87,35,1,30.47,30.33,20,4,24,0.00
2013-11-28,58,43,34,-29,-39,-45,1,1,1,30.44,30.32,7,0,7,0.00
2013-11-29,64,50,37,-25,-34,-43,1,1,1,30.47,30.32,8,2,14,0.00
2013-11-30,69,59,46,-22,-28,-37,1,1,1,30.36,30.14,12,1,12,0.00
2013-12-1,74,61,51,-19,-27,-34,1,1,1,30.16,29.94,9,1,11,0.00
2013-12-2,79,64,54,-16,-25,-32,1,1,1,29.94,29.66,13,1,13,0.00
2013-12-3,86,64,48,58,-20,-36,89,7,1,29.70,29.57,9,0,9,0.01
2013-12-4,77,65,54,68,62,52,98,90,70,29.75,29.64,13,1,13,0.00
2013-12-5,69,51,38,69,47,30,98,84,70,30.03,29.74,30,10,30,0.01
2013-12-6,43,36,33,36,32,28,94,83,71,30.40,30.00,25,10,26,0.07
2013-12-7,35,32,30,29,26,23,89,77,70,30.44,30.27,21,7,21,0.00
2013-12-8,48,40,32,44,35,29,94,84,73,30.28,30.02,9,1,11,0.00
2013-12-9,45,42,38,44,40,35,96,93,87,30.36,30.05,28,7,28,0.06
2013-12-10,51,39,32,35,28,24,89,68,35,30.50,30.33,25,4,25,0.00
2013-12-11,58,45,32,36,32,28,88,62,35,30.51,30.32,14,2,14,0.00
2013-12-12,53,45,37,40,35,31,80,68,52,30.58,30.30,16,3,16,0.00
2013-12-13,52,48,47,50,43,38,96,82,66,30.30,29.88,7,0,9,0.03
2013-12-14,60,51,44,51,42,33,95,73,48,30.31,29.89,25,5,25,0.00
2013-12-15,64,46,29,34,31,26,91,60,26,30.40,30.26,16,1,16,0.00
2013-12-16,66,46,29,37,32,26,92,64,26,30.32,30.19,12,1,12,0.00
2013-12-17,72,51,34,49,38,31,93,67,29,30.32,30.20,11,1,11,0.00
2013-12-18,72,55,38,55,46,35,93,73,45,30.27,30.03,16,2,16,0.00
2013-12-19,77,66,58,63,59,53,91,78,55,30.03,29.75,18,4,22,0.00
2013-12-20,75,70,65,68,65,62,90,83,72,29.80,29.55,24,4,24,0.00
2013-12-21,74,65,48,68,54,34,91,72,26,29.80,29.48,32,4,32,0.24
2013-12-22,64,52,41,45,40,32,83,64,45,30.34,29.79,21,5,21,0.00
2013-12-23,61,44,32,34,29,25,84,60,27,30.52,30.34,13,2,13,0.00
2013-12-24,60,45,30,41,29,20,89,59,23,30.52,30.26,16,2,16,0.00
2013-12-25,57,49,38,48,44,36,93,82,69,30.35,30.21,13,3,13,0.00
2013-12-26,53,48,46,48,41,38,91,76,65,30.40,30.30,21,4,21,0.02
2013-12-27,56,50,46,48,45,44,92,85,69,30.41,30.30,13,2,13,0.28
2013-12-28,56,50,44,46,43,39,92,77,56,30.30,30.01,8,0,8,0.00
2013-12-29,64,49,38,52,43,33,94,79,59,30.23,29.96,26,4,26,0.01
2013-12-30,43,40,38,34,30,26,84,68,54,30.39,30.20,22,5,22,0.00
2013-12-31,50,43,37,35,31,27,82,64,43,30.45,30.24,13,1,13,0.00
2014-1-1,59,50,39,50,42,34,87,75,62,30.24,30.00,11,1,11,0.00
2014-1-2,55,46,32,48,31,24,89,59,33,30.44,30.06,28,8,37,0.00